createdAt,value
2018-06-09T00:00:37.991Z,30.23
2018-06-09T00:05:41.343Z,27.30
2018-06-09T00:10:44.868Z,26.00
2018-06-09T00:15:48.124Z,22.27
2018-06-09T00:20:52.817Z,28.53
2018-06-09T00:25:56.276Z,20.57
2018-06-09T00:30:59.527Z,26.00
2018-06-09T00:36:02.652Z,22.90
2018-06-09T00:41:06.113Z,21.50
2018-06-09T00:46:09.379Z,20.43
2018-06-09T00:51:12.820Z,23.27
2018-06-09T00:56:27.833Z,29.40
2018-06-09T01:01:32.611Z,26.90
2018-06-09T01:06:35.929Z,26.47
2018-06-09T01:11:39.864Z,26.03
2018-06-09T01:16:43.923Z,23.70
2018-06-09T01:21:47.626Z,27.47
2018-06-09T01:26:50.774Z,24.97
2018-06-09T01:31:53.956Z,26.00
2018-06-09T01:36:57.159Z,22.17
2018-06-09T01:42:00.310Z,23.80
2018-06-09T01:47:06.678Z,21.70
2018-06-09T01:52:11.576Z,30.00
2018-06-09T01:57:14.773Z,37.73
2018-06-09T02:02:18.334Z,28.37
2018-06-09T02:07:21.502Z,31.63
2018-06-09T02:12:24.616Z,40.43
2018-06-09T02:17:27.863Z,29.40
2018-06-09T02:22:31.332Z,28.23
2018-06-09T02:27:35.160Z,33.70
2018-06-09T02:32:38.554Z,32.83
2018-06-09T02:37:42.074Z,34.53
2018-06-09T02:42:48.110Z,32.30
2018-06-09T02:47:51.678Z,32.97
2018-06-09T02:52:55.256Z,31.73
2018-06-09T02:57:59.418Z,35.93
2018-06-09T03:03:02.805Z,31.60
2018-06-09T03:08:06.132Z,42.67
2018-06-09T03:13:09.537Z,35.93
2018-06-09T03:18:14.025Z,37.90
2018-06-09T03:23:20.595Z,33.73
2018-06-09T03:28:25.241Z,32.00
2018-06-09T03:33:28.812Z,39.70
2018-06-09T03:38:32.281Z,34.23
2018-06-09T03:43:35.582Z,39.27
2018-06-09T03:48:38.842Z,36.90
2018-06-09T03:53:42.370Z,39.70
2018-06-09T03:58:45.550Z,39.20
2018-06-09T04:03:48.866Z,28.53
2018-06-09T04:08:52.064Z,31.70
2018-06-09T04:13:55.491Z,32.20
2018-06-09T04:18:59.104Z,33.80
2018-06-09T04:24:02.511Z,30.20
2018-06-09T04:29:06.189Z,24.07
2018-06-09T04:34:09.507Z,32.67
2018-06-09T04:39:13.180Z,22.27
2018-06-09T04:44:16.575Z,24.37
2018-06-09T04:49:20.148Z,29.73
2018-06-09T04:54:23.492Z,29.93
2018-06-09T04:59:26.914Z,33.57
2018-06-09T05:04:30.668Z,33.30
2018-06-09T05:09:33.992Z,30.20
2018-06-09T05:14:37.186Z,34.80
2018-06-09T05:19:40.929Z,37.47
2018-06-09T05:24:44.487Z,41.97
2018-06-09T05:29:47.677Z,40.63
2018-06-09T05:34:50.971Z,46.30
2018-06-09T05:39:54.344Z,38.93
2018-06-09T05:44:57.526Z,35.30
2018-06-09T05:50:00.679Z,33.00
2018-06-09T05:55:04.343Z,29.93
2018-06-09T06:00:07.943Z,29.30
2018-06-09T06:05:11.342Z,39.70
2018-06-09T06:10:14.671Z,34.93
2018-06-09T06:15:18.152Z,28.90
2018-06-09T06:20:21.702Z,28.13
2018-06-09T06:25:25.054Z,26.50
2018-06-09T06:30:28.249Z,24.53
2018-06-09T06:35:31.418Z,31.67
2018-06-09T06:40:34.682Z,29.37
2018-06-09T06:45:38.064Z,32.87
2018-06-09T06:50:41.458Z,34.63
2018-06-09T06:55:44.875Z,40.47
2018-06-09T07:00:48.064Z,46.33
2018-06-09T07:05:51.374Z,45.77
2018-06-09T07:10:55.258Z,37.53
2018-06-09T07:15:58.714Z,44.47
2018-06-09T07:21:01.961Z,38.53
2018-06-09T07:26:05.480Z,38.70
2018-06-09T07:31:08.935Z,36.23
2018-06-09T07:36:12.303Z,37.13
2018-06-09T07:41:15.487Z,32.60
2018-06-09T07:46:18.697Z,39.63
2018-06-09T07:51:22.006Z,43.77
2018-06-09T07:56:25.247Z,32.07
2018-06-09T08:01:28.548Z,35.20
2018-06-09T08:06:31.606Z,37.70
2018-06-09T08:11:35.116Z,34.97
2018-06-09T08:16:38.529Z,29.27
2018-06-09T08:21:41.932Z,33.33
2018-06-09T08:26:45.337Z,31.63
2018-06-09T08:31:48.832Z,31.03
2018-06-09T08:36:52.014Z,27.60
2018-06-09T08:41:55.411Z,31.17
2018-06-09T08:46:58.528Z,40.10
2018-06-09T08:52:01.812Z,32.10
2018-06-09T08:57:05.196Z,34.03
2018-06-09T09:02:08.804Z,28.03
2018-06-09T09:07:12.253Z,28.27
2018-06-09T09:12:15.759Z,26.03
2018-06-09T09:17:19.174Z,25.00
2018-06-09T09:22:22.716Z,26.23
2018-06-09T09:27:25.904Z,24.00
2018-06-09T09:32:29.485Z,20.37
2018-06-09T09:37:32.822Z,28.03
2018-06-09T09:42:36.206Z,27.17
2018-06-09T09:47:39.447Z,23.60
2018-06-09T09:52:42.922Z,23.23
2018-06-09T09:57:59.758Z,22.70
2018-06-09T10:03:03.156Z,24.47
2018-06-09T10:08:06.458Z,23.13
2018-06-09T10:13:10.083Z,26.40
2018-06-09T10:18:13.408Z,27.30
2018-06-09T10:23:16.583Z,21.60
2018-06-09T10:28:19.694Z,21.50
2018-06-09T10:33:22.860Z,23.63
2018-06-09T10:38:26.095Z,23.10
2018-06-09T10:43:29.546Z,24.87
2018-06-09T10:48:33.139Z,22.00
2018-06-09T10:53:36.870Z,25.93
2018-06-09T10:58:40.379Z,23.30
2018-06-09T11:03:43.685Z,21.00
2018-06-09T11:08:47.001Z,20.07
2018-06-09T11:13:50.239Z,20.80
2018-06-09T11:18:56.323Z,20.67
2018-06-09T11:24:00.099Z,19.80
2018-06-09T11:29:03.315Z,23.57
2018-06-09T11:34:07.032Z,22.90
2018-06-09T11:39:10.443Z,22.00
2018-06-09T11:44:13.846Z,21.87
2018-06-09T11:49:17.267Z,21.23
2018-06-09T11:54:20.605Z,22.13
2018-06-09T11:59:24.038Z,20.80
2018-06-09T12:04:27.181Z,21.63
2018-06-09T12:09:30.570Z,19.70
2018-06-09T12:14:34.012Z,21.97
2018-06-09T12:19:37.639Z,23.57
2018-06-09T12:24:41.677Z,20.37
2018-06-09T12:29:45.052Z,19.97
2018-06-09T12:34:48.460Z,21.37
2018-06-09T12:39:51.932Z,20.80
2018-06-09T12:44:55.127Z,21.00
2018-06-09T12:49:58.608Z,18.80
2018-06-09T12:55:01.820Z,19.43
2018-06-09T13:00:05.255Z,29.43
2018-06-09T13:05:08.677Z,26.40
2018-06-09T13:10:12.121Z,22.43
2018-06-09T13:15:15.469Z,20.60
2018-06-09T13:20:18.870Z,20.53
2018-06-09T13:25:22.282Z,17.67
2018-06-09T13:30:25.746Z,20.80
2018-06-09T13:35:29.061Z,21.97
2018-06-09T13:40:32.290Z,20.63
2018-06-09T13:45:35.730Z,19.97
2018-06-09T13:50:39.140Z,21.27
2018-06-09T13:55:42.406Z,22.60
2018-06-09T14:00:45.867Z,21.83
2018-06-09T14:05:49.178Z,20.37
2018-06-09T14:10:52.443Z,24.97
2018-06-09T14:15:55.914Z,19.50
2018-06-09T14:20:59.391Z,21.67
2018-06-09T14:26:02.920Z,20.00
2018-06-09T14:31:06.223Z,17.80
2018-06-09T14:36:09.697Z,19.23
2018-06-09T14:41:13.068Z,20.67
2018-06-09T14:46:16.246Z,18.20
2018-06-09T14:51:19.482Z,29.20
2018-06-09T14:56:22.862Z,26.57
2018-06-09T15:01:26.472Z,38.60
2018-06-09T15:06:29.725Z,39.27
2018-06-09T15:11:33.004Z,27.80
2018-06-09T15:16:36.302Z,33.47
2018-06-09T15:21:39.674Z,27.67
2018-06-09T15:26:43.111Z,31.97
2018-06-09T15:31:46.419Z,31.10
2018-06-09T15:36:49.610Z,26.27
2018-06-09T15:41:52.956Z,37.90
2018-06-09T15:46:56.256Z,21.70
2018-06-09T15:51:59.675Z,18.77
2018-06-09T15:57:02.896Z,14.43
2018-06-09T16:02:05.997Z,14.23
2018-06-09T16:07:09.377Z,16.23
2018-06-09T16:12:12.680Z,16.03
2018-06-09T16:17:16.107Z,14.30
2018-06-09T16:22:19.295Z,14.40
2018-06-09T16:27:22.527Z,16.57
2018-06-09T16:32:26.059Z,17.73
2018-06-09T16:37:29.336Z,23.83
2018-06-09T16:42:32.734Z,30.03
2018-06-09T16:47:36.427Z,36.07
2018-06-09T16:52:39.806Z,34.00
2018-06-09T16:57:42.987Z,41.63
2018-06-09T17:02:46.180Z,42.60
2018-06-09T17:07:49.633Z,43.20
2018-06-09T17:12:52.853Z,46.43
2018-06-09T17:17:56.089Z,56.27
2018-06-09T17:22:59.466Z,66.63
2018-06-09T17:28:02.809Z,57.00
2018-06-09T17:33:06.166Z,55.17
2018-06-09T17:38:09.583Z,59.10
2018-06-09T17:43:12.857Z,56.97
2018-06-09T17:48:16.116Z,62.70
2018-06-09T17:53:19.605Z,61.30
2018-06-09T17:58:23.030Z,65.80
2018-06-09T18:03:26.540Z,63.73
2018-06-09T18:08:29.848Z,84.77
2018-06-09T18:13:33.252Z,83.83
2018-06-09T18:18:36.459Z,59.50
2018-06-09T18:23:39.993Z,61.90
2018-06-09T18:28:43.245Z,64.30
2018-06-09T18:33:46.509Z,70.47
2018-06-09T18:38:49.605Z,46.47
2018-06-09T18:43:53.261Z,38.23
2018-06-09T18:48:56.355Z,36.43
2018-06-09T18:53:59.836Z,34.60
2018-06-09T18:59:03.465Z,47.87
2018-06-09T19:04:06.896Z,44.40
2018-06-09T19:09:10.284Z,36.10
2018-06-09T19:14:13.472Z,24.50
2018-06-09T19:19:16.897Z,21.13
2018-06-09T19:24:20.145Z,14.20
2018-06-09T19:29:23.600Z,14.03
2018-06-09T19:34:34.597Z,15.00
2018-06-09T19:39:38.237Z,18.23
2018-06-09T19:44:41.643Z,22.40
2018-06-09T19:49:45.341Z,17.07
2018-06-09T19:54:48.695Z,27.87
2018-06-09T19:59:51.968Z,17.57
2018-06-09T20:04:55.341Z,18.47
2018-06-09T20:09:58.540Z,19.10
2018-06-09T20:15:02.007Z,21.80
2018-06-09T20:20:05.263Z,17.57
2018-06-09T20:25:08.586Z,21.93
2018-06-09T20:30:11.805Z,17.23
2018-06-09T20:35:15.395Z,16.70
2018-06-09T20:40:18.862Z,20.40
2018-06-09T20:45:22.099Z,19.03
2018-06-09T20:50:25.544Z,16.80
2018-06-09T20:55:28.994Z,25.53
2018-06-09T21:00:32.493Z,41.20
2018-06-09T21:05:36.583Z,93.03
2018-06-09T21:10:40.036Z,25.00
2018-06-09T21:15:43.282Z,19.57
2018-06-09T21:20:46.791Z,28.97
2018-06-09T21:25:49.949Z,30.80
2018-06-09T21:30:55.879Z,69.30
2018-06-09T21:36:04.700Z,49.47
2018-06-09T21:41:13.760Z,29.63
2018-06-09T21:46:22.639Z,24.90
2018-06-09T21:51:26.173Z,23.70
2018-06-09T21:56:29.580Z,26.97
2018-06-09T22:01:32.985Z,26.97
2018-06-09T22:06:36.401Z,23.00
2018-06-09T22:11:39.816Z,45.13
2018-06-09T22:16:43.340Z,31.47
2018-06-09T22:21:46.721Z,23.77
2018-06-09T22:26:50.156Z,31.80
2018-06-09T22:31:53.559Z,36.43
2018-06-09T22:36:56.965Z,33.17
2018-06-09T22:42:00.359Z,45.50
2018-06-09T22:47:04.081Z,33.07
2018-06-09T22:52:07.520Z,29.27
2018-06-09T22:57:11.051Z,36.63
2018-06-09T23:02:14.312Z,29.90
2018-06-09T23:07:17.350Z,27.30
2018-06-09T23:12:20.961Z,23.33
2018-06-09T23:17:24.160Z,21.20
2018-06-09T23:22:27.213Z,28.03
2018-06-09T23:27:30.519Z,26.07
2018-06-09T23:32:33.811Z,30.03
2018-06-09T23:37:37.182Z,25.63
2018-06-09T23:42:40.513Z,25.80
2018-06-09T23:47:43.771Z,24.07
2018-06-09T23:52:46.949Z,28.60
2018-06-09T23:57:50.224Z,34.77
